createdAt,value
2018-07-04T00:00:18.624Z,319.00
2018-07-04T00:01:19.387Z,319.00
2018-07-04T00:02:20.164Z,319.00
2018-07-04T00:03:20.934Z,319.00
2018-07-04T00:04:21.705Z,319.00
2018-07-04T00:05:22.508Z,319.00
2018-07-04T00:06:23.276Z,319.00
2018-07-04T00:07:24.060Z,319.00
2018-07-04T00:08:24.820Z,319.00
2018-07-04T00:09:25.610Z,319.00
2018-07-04T00:10:26.403Z,319.00
2018-07-04T00:11:27.177Z,319.00
2018-07-04T00:12:27.956Z,319.00
2018-07-04T00:13:28.723Z,319.00
2018-07-04T00:14:29.509Z,319.00
2018-07-04T00:15:30.313Z,319.00
2018-07-04T00:16:31.074Z,319.00
2018-07-04T00:17:31.844Z,319.00
2018-07-04T00:18:32.634Z,319.00
2018-07-04T00:19:33.395Z,319.00
2018-07-04T00:20:34.613Z,319.00
2018-07-04T00:21:34.833Z,319.00
2018-07-04T00:26:32.012Z,320.00
2018-07-04T00:27:33.780Z,319.00
2018-07-04T00:28:34.565Z,319.00
2018-07-04T00:29:35.344Z,319.00
2018-07-04T00:30:36.104Z,319.00
2018-07-04T00:31:36.899Z,319.00
2018-07-04T00:32:37.677Z,320.00
2018-07-04T00:33:38.449Z,319.00
2018-07-04T00:34:39.217Z,319.00
2018-07-04T00:35:39.993Z,320.00
2018-07-04T00:36:44.300Z,319.00
2018-07-04T00:37:41.069Z,319.00
2018-07-04T00:38:41.837Z,319.00
2018-07-04T00:39:42.608Z,319.00
2018-07-04T00:40:43.389Z,319.00
2018-07-04T00:41:44.188Z,320.00
2018-07-04T00:42:44.959Z,319.00
2018-07-04T00:43:45.745Z,319.00
2018-07-04T00:44:46.512Z,319.00
2018-07-04T00:45:47.310Z,319.00
2018-07-04T00:46:48.098Z,319.00
2018-07-04T00:47:48.861Z,319.00
2018-07-04T00:48:49.636Z,319.00
2018-07-04T00:49:50.414Z,319.00
2018-07-04T00:50:51.190Z,319.00
2018-07-04T00:51:51.984Z,320.00
2018-07-04T00:52:52.756Z,319.00
2018-07-04T00:53:53.536Z,319.00
2018-07-04T00:54:54.304Z,319.00
2018-07-04T00:55:55.085Z,319.00
2018-07-04T00:56:55.875Z,319.00
2018-07-04T00:57:56.655Z,319.00
2018-07-04T00:58:57.425Z,319.00
2018-07-04T00:59:58.196Z,319.00
2018-07-04T01:00:58.966Z,319.00
2018-07-04T01:01:59.784Z,320.00
2018-07-04T01:03:00.554Z,319.00
2018-07-04T01:04:01.334Z,319.00
2018-07-04T01:05:02.111Z,319.00
2018-07-04T01:06:02.874Z,319.00
2018-07-04T01:07:03.670Z,319.00
2018-07-04T01:08:04.456Z,319.00
2018-07-04T01:09:05.225Z,319.00
2018-07-04T01:10:05.995Z,319.00
2018-07-04T01:11:06.775Z,319.00
2018-07-04T01:12:07.568Z,319.00
2018-07-04T01:13:08.374Z,319.00
2018-07-04T01:14:09.114Z,319.00
2018-07-04T01:15:09.897Z,319.00
2018-07-04T01:16:10.666Z,319.00
2018-07-04T01:17:11.468Z,319.00
2018-07-04T01:18:12.247Z,320.00
2018-07-04T01:19:13.022Z,320.00
2018-07-04T01:20:13.796Z,319.00
2018-07-04T01:21:14.567Z,319.00
2018-07-04T01:22:15.363Z,319.00
2018-07-04T01:23:16.143Z,319.00
2018-07-04T01:24:16.914Z,319.00
2018-07-04T01:25:17.686Z,320.00
2018-07-04T01:26:18.466Z,319.00
2018-07-04T01:27:19.261Z,319.00
2018-07-04T01:28:20.059Z,319.00
2018-07-04T01:29:20.819Z,319.00
2018-07-04T01:30:21.596Z,319.00
2018-07-04T01:31:22.376Z,319.00
2018-07-04T01:32:23.172Z,319.00
2018-07-04T01:33:24.041Z,320.00
2018-07-04T01:34:23.744Z,319.00
2018-07-04T01:35:25.513Z,319.00
2018-07-04T01:36:26.291Z,320.00
2018-07-04T01:37:27.089Z,319.00
2018-07-04T01:38:27.861Z,320.00
2018-07-04T01:39:28.653Z,319.00
2018-07-04T01:40:29.418Z,319.00
2018-07-04T01:41:30.193Z,319.00
2018-07-04T01:42:31.011Z,319.00
2018-07-04T01:43:31.770Z,319.00
2018-07-04T01:44:32.548Z,319.00
2018-07-04T01:45:33.318Z,320.00
2018-07-04T01:46:34.106Z,319.00
2018-07-04T01:47:34.900Z,319.00
2018-07-04T01:48:35.675Z,319.00
2018-07-04T01:49:36.446Z,319.00
2018-07-04T01:50:37.230Z,319.00
2018-07-04T01:51:37.998Z,319.00
2018-07-04T01:52:38.800Z,319.00
2018-07-04T01:53:39.609Z,319.00
2018-07-04T01:54:40.381Z,319.00
2018-07-04T01:55:41.148Z,319.00
2018-07-04T01:56:41.968Z,319.00
2018-07-04T01:57:41.737Z,319.00
2018-07-04T01:58:43.520Z,319.00
2018-07-04T01:59:44.324Z,319.00
2018-07-04T02:00:44.059Z,319.00
2018-07-04T02:01:45.844Z,319.00
2018-07-04T02:02:46.633Z,319.00
2018-07-04T02:03:47.421Z,320.00
2018-07-04T02:04:50.607Z,319.00
2018-07-04T02:05:47.975Z,320.00
2018-07-04T02:06:49.742Z,319.00
2018-07-04T02:07:50.559Z,320.00
2018-07-04T02:08:51.332Z,319.00
2018-07-04T02:09:52.100Z,319.00
2018-07-04T02:10:52.895Z,319.00
2018-07-04T02:11:53.673Z,319.00
2018-07-04T02:12:54.465Z,319.00
2018-07-04T02:13:55.244Z,319.00
2018-07-04T02:14:56.066Z,319.00
2018-07-04T02:15:55.830Z,319.00
2018-07-04T02:16:57.574Z,319.00
2018-07-04T02:17:58.796Z,319.00
2018-07-04T02:20:53.499Z,319.00
2018-07-04T02:21:54.270Z,319.00
2018-07-04T02:22:55.045Z,319.00
2018-07-04T02:23:55.848Z,319.00
2018-07-04T02:24:56.610Z,319.00
2018-07-04T02:25:57.393Z,319.00
2018-07-04T02:26:58.155Z,319.00
2018-07-04T02:27:58.924Z,319.00
2018-07-04T02:28:59.749Z,319.00
2018-07-04T02:30:00.504Z,319.00
2018-07-04T02:31:01.274Z,319.00
2018-07-04T02:32:02.042Z,319.00
2018-07-04T02:33:02.815Z,320.00
2018-07-04T02:34:03.615Z,320.00
2018-07-04T02:35:04.397Z,319.00
2018-07-04T02:36:05.168Z,320.00
2018-07-04T02:37:05.954Z,319.00
2018-07-04T02:38:06.711Z,319.00
2018-07-04T02:39:07.508Z,319.00
2018-07-04T02:40:08.278Z,319.00
2018-07-04T02:41:09.052Z,319.00
2018-07-04T02:42:09.822Z,319.00
2018-07-04T02:43:10.591Z,319.00
2018-07-04T02:44:11.394Z,319.00
2018-07-04T02:45:12.169Z,319.00
2018-07-04T02:46:12.938Z,320.00
2018-07-04T02:47:13.727Z,319.00
2018-07-04T02:48:14.489Z,320.00
2018-07-04T02:49:15.287Z,320.00
2018-07-04T02:50:16.048Z,320.00
2018-07-04T02:51:16.835Z,320.00
2018-07-04T02:52:17.595Z,320.00
2018-07-04T02:53:18.382Z,320.00
2018-07-04T02:54:19.172Z,319.00
2018-07-04T02:55:19.943Z,320.00
2018-07-04T02:56:20.719Z,320.00
2018-07-04T02:57:21.493Z,320.00
2018-07-04T02:58:22.265Z,320.00
2018-07-04T02:59:23.068Z,320.00
2018-07-04T03:00:23.835Z,320.00
2018-07-04T03:01:24.602Z,320.00
2018-07-04T03:02:25.383Z,320.00
2018-07-04T03:03:26.171Z,320.00
2018-07-04T03:04:26.971Z,320.00
2018-07-04T03:05:27.722Z,320.00
2018-07-04T03:06:28.497Z,320.00
2018-07-04T03:07:29.268Z,320.00
2018-07-04T03:08:30.045Z,320.00
2018-07-04T03:09:30.843Z,320.00
2018-07-04T03:10:31.618Z,320.00
2018-07-04T03:11:32.395Z,320.00
2018-07-04T03:12:33.165Z,320.00
2018-07-04T03:13:33.940Z,320.00
2018-07-04T03:14:34.730Z,320.00
2018-07-04T03:15:35.502Z,320.00
2018-07-04T03:16:36.282Z,320.00
2018-07-04T03:17:37.056Z,320.00
2018-07-04T03:18:37.830Z,320.00
2018-07-04T03:19:38.628Z,320.00
2018-07-04T03:20:39.402Z,320.00
2018-07-04T03:21:40.173Z,320.00
2018-07-04T03:22:40.946Z,320.00
2018-07-04T03:23:41.727Z,320.00
2018-07-04T03:24:42.526Z,320.00
2018-07-04T03:25:43.299Z,320.00
2018-07-04T03:26:44.073Z,320.00
2018-07-04T03:27:44.843Z,320.00
2018-07-04T03:28:45.620Z,320.00
2018-07-04T03:29:46.429Z,320.00
2018-07-04T03:30:47.201Z,320.00
2018-07-04T03:31:47.971Z,321.00
2018-07-04T03:32:48.751Z,320.00
2018-07-04T03:33:51.691Z,320.00
2018-07-04T03:34:49.335Z,320.00
2018-07-04T03:35:51.122Z,320.00
2018-07-04T03:36:51.880Z,320.00
2018-07-04T03:37:52.651Z,321.00
2018-07-04T03:38:53.428Z,321.00
2018-07-04T03:39:54.226Z,321.00
2018-07-04T03:40:55.005Z,320.00
2018-07-04T03:41:55.774Z,321.00
2018-07-04T03:42:56.568Z,321.00
2018-07-04T03:43:57.344Z,320.00
2018-07-04T03:44:58.141Z,322.00
2018-07-04T03:45:58.911Z,321.00
2018-07-04T03:46:59.679Z,321.00
2018-07-04T03:48:00.455Z,321.00
2018-07-04T03:49:01.226Z,321.00
2018-07-04T03:50:02.024Z,321.00
2018-07-04T03:51:02.802Z,321.00
2018-07-04T03:52:03.575Z,321.00
2018-07-04T03:53:04.352Z,321.00
2018-07-04T03:54:05.120Z,321.00
2018-07-04T03:55:05.928Z,321.00
2018-07-04T03:56:06.694Z,321.00
2018-07-04T03:57:07.469Z,321.00
2018-07-04T03:58:08.279Z,321.00
2018-07-04T03:59:08.014Z,321.00
2018-07-04T04:00:09.817Z,321.00
2018-07-04T04:01:10.599Z,322.00
2018-07-04T04:02:11.367Z,321.00
2018-07-04T04:03:12.152Z,321.00
2018-07-04T04:04:12.916Z,321.00
2018-07-04T04:05:13.715Z,321.00
2018-07-04T04:06:14.493Z,321.00
2018-07-04T04:07:15.271Z,321.00
2018-07-04T04:08:15.049Z,321.00
2018-07-04T04:09:16.806Z,321.00
2018-07-04T04:10:18.004Z,321.00
2018-07-04T04:24:55.721Z,322.00
2018-07-04T04:25:56.517Z,322.00
2018-07-04T04:26:57.288Z,324.00
2018-07-04T04:27:58.059Z,324.00
2018-07-04T04:28:58.839Z,324.00
2018-07-04T04:29:59.621Z,324.00
2018-07-04T04:31:00.421Z,325.00
2018-07-04T04:32:01.201Z,324.00
2018-07-04T04:33:01.965Z,324.00
2018-07-04T04:34:02.732Z,324.00
2018-07-04T04:35:03.506Z,324.00
2018-07-04T04:36:04.304Z,324.00
2018-07-04T04:37:05.073Z,324.00
2018-07-04T04:38:05.853Z,324.00
2018-07-04T04:39:06.631Z,324.00
2018-07-04T04:40:07.404Z,324.00
2018-07-04T04:41:08.194Z,325.00
2018-07-04T04:42:08.968Z,325.00
2018-07-04T04:43:09.739Z,325.00
2018-07-04T04:44:10.512Z,325.00
2018-07-04T04:45:11.284Z,325.00
2018-07-04T04:46:12.080Z,325.00
2018-07-04T04:47:12.857Z,325.00
2018-07-04T04:48:13.625Z,325.00
2018-07-04T04:49:14.400Z,325.00
2018-07-04T04:50:15.176Z,325.00
2018-07-04T04:51:15.970Z,325.00
2018-07-04T04:52:15.745Z,325.00
2018-07-04T04:53:17.517Z,325.00
2018-07-04T04:54:18.297Z,324.00
2018-07-04T04:55:19.063Z,325.00
2018-07-04T04:56:19.863Z,324.00
2018-07-04T04:57:20.635Z,324.00
2018-07-04T04:58:21.410Z,325.00
2018-07-04T04:59:22.184Z,324.00
2018-07-04T05:00:22.959Z,325.00
2018-07-04T05:01:23.761Z,325.00
2018-07-04T05:02:24.532Z,324.00
2018-07-04T05:03:25.304Z,325.00
2018-07-04T05:04:26.079Z,325.00
2018-07-04T05:05:26.855Z,325.00
2018-07-04T05:06:27.652Z,325.00
2018-07-04T05:07:28.423Z,325.00
2018-07-04T05:08:29.200Z,325.00
2018-07-04T05:09:29.968Z,325.00
2018-07-04T05:10:30.760Z,326.00
2018-07-04T05:11:31.551Z,325.00
2018-07-04T05:12:31.323Z,325.00
2018-07-04T05:13:33.104Z,325.00
2018-07-04T05:14:33.870Z,325.00
2018-07-04T05:15:34.648Z,325.00
2018-07-04T05:16:35.442Z,325.00
2018-07-04T05:17:36.215Z,325.00
2018-07-04T05:18:36.987Z,325.00
2018-07-04T05:19:37.763Z,325.00
2018-07-04T05:20:38.539Z,325.00
2018-07-04T05:21:39.336Z,325.00
2018-07-04T05:22:40.159Z,326.00
2018-07-04T05:23:39.884Z,326.00
2018-07-04T05:24:41.653Z,325.00
2018-07-04T05:25:42.429Z,326.00
2018-07-04T05:26:43.226Z,326.00
2018-07-04T05:27:44.007Z,326.00
2018-07-04T05:28:44.775Z,326.00
2018-07-04T05:29:45.557Z,326.00
2018-07-04T05:30:46.357Z,327.00
2018-07-04T05:31:47.120Z,327.00
2018-07-04T05:32:47.901Z,327.00
2018-07-04T05:33:48.667Z,327.00
2018-07-04T05:34:49.438Z,327.00
2018-07-04T05:35:50.214Z,327.00
2018-07-04T05:36:51.008Z,327.00
2018-07-04T05:37:51.783Z,326.00
2018-07-04T05:38:52.555Z,327.00
2018-07-04T05:39:53.329Z,327.00
2018-07-04T05:40:53.123Z,327.00
2018-07-04T05:41:54.904Z,327.00
2018-07-04T05:42:55.675Z,327.00
2018-07-04T05:43:56.447Z,327.00
2018-07-04T05:44:57.221Z,327.00
2018-07-04T05:45:57.996Z,327.00
2018-07-04T05:46:58.801Z,327.00
2018-07-04T05:47:59.576Z,327.00
2018-07-04T05:49:00.350Z,327.00
2018-07-04T05:50:01.114Z,328.00
2018-07-04T05:51:01.890Z,327.00
2018-07-04T05:52:02.686Z,327.00
2018-07-04T05:53:03.473Z,327.00
2018-07-04T05:54:04.243Z,327.00
2018-07-04T05:55:05.017Z,327.00
2018-07-04T05:56:05.805Z,327.00
2018-07-04T05:57:06.594Z,327.00
2018-07-04T05:58:07.370Z,327.00
2018-07-04T05:59:08.146Z,328.00
2018-07-04T06:00:08.915Z,327.00
2018-07-04T06:01:09.696Z,328.00
2018-07-04T06:02:10.488Z,328.00
2018-07-04T06:03:11.267Z,327.00
2018-07-04T06:04:12.032Z,327.00
2018-07-04T06:05:12.811Z,328.00
2018-07-04T06:06:13.592Z,327.00
2018-07-04T06:07:14.402Z,327.00
2018-07-04T06:08:15.163Z,327.00
2018-07-04T06:09:15.933Z,328.00
2018-07-04T06:10:16.706Z,327.00
2018-07-04T06:11:17.479Z,327.00
2018-07-04T06:12:18.282Z,327.00
2018-07-04T06:13:19.056Z,328.00
2018-07-04T06:14:19.826Z,328.00
2018-07-04T06:15:20.988Z,328.00
2018-07-04T06:16:21.724Z,328.00
2018-07-04T06:29:24.948Z,329.00
2018-07-04T06:30:25.716Z,329.00
2018-07-04T06:31:26.489Z,329.00
2018-07-04T06:32:27.316Z,329.00
2018-07-04T06:33:27.037Z,329.00
2018-07-04T06:34:28.832Z,329.00
2018-07-04T06:35:29.612Z,329.00
2018-07-04T06:36:30.376Z,329.00
2018-07-04T06:37:31.149Z,329.00
2018-07-04T06:38:31.920Z,329.00
2018-07-04T06:39:32.720Z,330.00
2018-07-04T06:40:33.493Z,330.00
2018-07-04T06:41:34.269Z,329.00
2018-07-04T06:42:35.041Z,330.00
2018-07-04T06:43:35.822Z,330.00
2018-07-04T06:44:36.625Z,330.00
2018-07-04T06:45:37.392Z,330.00
2018-07-04T06:46:38.173Z,330.00
2018-07-04T06:47:38.940Z,330.00
2018-07-04T06:48:39.714Z,330.00
2018-07-04T06:49:40.517Z,330.00
2018-07-04T06:50:41.284Z,330.00
2018-07-04T06:51:42.058Z,330.00
2018-07-04T06:52:42.831Z,330.00
2018-07-04T06:53:43.601Z,330.00
2018-07-04T06:54:44.406Z,330.00
2018-07-04T06:55:45.172Z,331.00
2018-07-04T06:56:45.952Z,333.00
2018-07-04T06:57:46.722Z,336.00
2018-07-04T06:58:47.499Z,336.00
2018-07-04T06:59:48.290Z,336.00
2018-07-04T07:00:49.058Z,336.00
2018-07-04T07:01:49.859Z,336.00
2018-07-04T07:02:50.609Z,336.00
2018-07-04T07:03:51.382Z,337.00
2018-07-04T07:04:52.178Z,339.00
2018-07-04T07:05:52.947Z,340.00
2018-07-04T07:06:53.720Z,341.00
2018-07-04T07:07:54.493Z,340.00
2018-07-04T07:08:55.274Z,341.00
2018-07-04T07:09:56.066Z,344.00
2018-07-04T07:10:56.836Z,344.00
2018-07-04T07:11:57.612Z,344.00
2018-07-04T07:12:58.383Z,345.00
2018-07-04T07:13:59.157Z,346.00
2018-07-04T07:14:59.963Z,344.00
2018-07-04T07:16:00.744Z,344.00
2018-07-04T07:17:01.514Z,345.00
2018-07-04T07:18:02.282Z,348.00
2018-07-04T07:19:03.063Z,346.00
2018-07-04T07:20:03.860Z,346.00
2018-07-04T07:21:03.642Z,348.00
2018-07-04T07:22:05.405Z,346.00
2018-07-04T07:23:06.184Z,346.00
2018-07-04T07:24:06.977Z,344.00
2018-07-04T07:25:07.749Z,344.00
2018-07-04T07:26:08.524Z,344.00
2018-07-04T07:27:09.295Z,345.00
2018-07-04T07:28:10.067Z,346.00
2018-07-04T07:29:10.845Z,346.00
2018-07-04T07:30:11.641Z,344.00
2018-07-04T07:31:12.414Z,342.00
2018-07-04T07:32:13.194Z,341.00
2018-07-04T07:33:13.968Z,340.00
2018-07-04T07:34:14.835Z,341.00
2018-07-04T07:35:14.538Z,342.00
2018-07-04T07:36:16.309Z,344.00
2018-07-04T07:37:17.086Z,345.00
2018-07-04T07:38:16.854Z,348.00
2018-07-04T07:39:18.631Z,348.00
2018-07-04T07:40:19.434Z,350.00
2018-07-04T07:41:20.205Z,350.00
2018-07-04T07:42:20.979Z,350.00
2018-07-04T07:43:21.765Z,349.00
2018-07-04T07:44:22.528Z,350.00
2018-07-04T07:45:23.320Z,351.00
2018-07-04T07:46:24.174Z,352.00
2018-07-04T07:47:23.944Z,351.00
2018-07-04T07:48:25.721Z,353.00
2018-07-04T07:49:26.500Z,353.00
2018-07-04T07:50:27.295Z,353.00
2018-07-04T07:51:28.065Z,353.00
2018-07-04T07:52:28.842Z,355.00
2018-07-04T07:53:29.610Z,353.00
2018-07-04T07:54:30.458Z,354.00
2018-07-04T07:55:30.179Z,356.00
2018-07-04T07:56:31.965Z,356.00
2018-07-04T07:57:32.736Z,355.00
2018-07-04T07:58:33.512Z,355.00
2018-07-04T07:59:34.286Z,356.00
2018-07-04T08:00:35.081Z,357.00
2018-07-04T08:01:35.857Z,358.00
2018-07-04T08:02:36.625Z,360.00
2018-07-04T08:03:37.403Z,360.00
2018-07-04T08:04:38.176Z,357.00
2018-07-04T08:05:38.976Z,360.00
2018-07-04T08:06:39.990Z,358.00
2018-07-04T08:07:39.685Z,357.00
2018-07-04T08:08:41.459Z,357.00
2018-07-04T08:09:42.237Z,360.00
2018-07-04T08:10:43.033Z,358.00
2018-07-04T08:11:43.803Z,357.00
2018-07-04T08:12:44.635Z,357.00
2018-07-04T08:13:44.353Z,353.00
2018-07-04T08:14:46.126Z,353.00
2018-07-04T08:15:46.919Z,349.00
2018-07-04T08:16:47.695Z,350.00
2018-07-04T08:17:48.474Z,348.00
2018-07-04T08:18:49.274Z,349.00
2018-07-04T08:19:49.022Z,344.00
2018-07-04T08:20:50.818Z,340.00
2018-07-04T08:21:51.590Z,340.00
2018-07-04T08:22:52.363Z,339.00
2018-07-04T08:23:56.383Z,352.00
2018-07-04T08:24:53.737Z,353.00
2018-07-04T08:25:52.954Z,350.00
2018-07-04T08:27:17.550Z,342.00
2018-07-04T08:28:18.318Z,340.00
2018-07-04T08:29:19.089Z,339.00
2018-07-04T08:30:19.862Z,339.00
2018-07-04T08:31:20.667Z,339.00
2018-07-04T08:32:21.441Z,340.00
2018-07-04T08:33:22.270Z,344.00
2018-07-04T08:34:22.165Z,341.00
2018-07-04T08:35:22.863Z,340.00
2018-07-04T08:36:24.660Z,341.00
2018-07-04T08:37:25.424Z,342.00
2018-07-04T08:38:26.195Z,344.00
2018-07-04T08:39:26.973Z,360.00
2018-07-04T08:40:27.745Z,355.00
2018-07-04T08:41:28.574Z,343.00
2018-07-04T08:42:29.339Z,343.00
2018-07-04T08:43:30.120Z,343.00
2018-07-04T08:44:30.882Z,349.00
2018-07-04T08:45:31.657Z,345.00
2018-07-04T08:46:32.453Z,355.00
2018-07-04T08:47:33.226Z,351.00
2018-07-04T08:48:33.992Z,344.00
2018-07-04T08:49:34.765Z,344.00
2018-07-04T08:50:35.577Z,341.00
2018-07-04T08:51:35.336Z,341.00
2018-07-04T08:52:36.139Z,341.00
2018-07-04T08:53:36.883Z,341.00
2018-07-04T08:54:38.655Z,342.00
2018-07-04T08:55:39.426Z,343.00
2018-07-04T08:56:40.225Z,344.00
2018-07-04T08:57:40.997Z,345.00
2018-07-04T08:58:41.848Z,350.00
2018-07-04T08:59:41.546Z,355.00
2018-07-04T09:00:43.318Z,344.00
2018-07-04T09:01:44.115Z,340.00
2018-07-04T09:02:44.888Z,339.00
2018-07-04T09:03:45.665Z,337.00
2018-07-04T09:04:46.432Z,337.00
2018-07-04T09:05:47.216Z,336.00
2018-07-04T09:06:48.013Z,337.00
2018-07-04T09:07:48.777Z,337.00
2018-07-04T09:08:49.550Z,338.00
2018-07-04T09:09:50.322Z,339.00
2018-07-04T09:10:51.099Z,340.00
2018-07-04T09:11:51.937Z,349.00
2018-07-04T09:12:51.666Z,350.00
2018-07-04T09:13:53.437Z,342.00
2018-07-04T09:14:54.214Z,361.00
2018-07-04T09:15:54.984Z,356.00
2018-07-04T09:16:55.782Z,354.00
2018-07-04T09:17:56.556Z,350.00
2018-07-04T09:18:57.352Z,334.00
2018-07-04T09:19:58.114Z,329.00
2018-07-04T09:20:58.909Z,328.00
2018-07-04T09:21:59.691Z,328.00
2018-07-04T09:23:00.467Z,327.00
2018-07-04T09:24:01.239Z,327.00
2018-07-04T09:25:02.012Z,327.00
2018-07-04T09:26:02.786Z,326.00
2018-07-04T09:27:03.593Z,326.00
2018-07-04T09:28:04.364Z,326.00
2018-07-04T09:29:05.132Z,326.00
2018-07-04T09:30:05.915Z,326.00
2018-07-04T09:31:06.690Z,326.00
2018-07-04T09:32:07.478Z,326.00
2018-07-04T09:33:08.258Z,326.00
2018-07-04T09:34:09.029Z,326.00
2018-07-04T09:35:09.800Z,326.00
2018-07-04T09:36:10.579Z,326.00
2018-07-04T09:37:11.373Z,326.00
2018-07-04T09:38:12.145Z,325.00
2018-07-04T09:39:12.930Z,326.00
2018-07-04T09:40:13.694Z,325.00
2018-07-04T09:41:14.473Z,326.00
2018-07-04T09:42:15.279Z,326.00
2018-07-04T09:43:16.046Z,325.00
2018-07-04T09:44:16.819Z,326.00
2018-07-04T09:45:17.598Z,326.00
2018-07-04T09:46:18.377Z,325.00
2018-07-04T09:47:19.168Z,325.00
2018-07-04T09:48:19.950Z,325.00
2018-07-04T09:49:20.712Z,325.00
2018-07-04T09:50:21.488Z,325.00
2018-07-04T09:51:22.260Z,326.00
2018-07-04T09:52:23.062Z,325.00
2018-07-04T09:53:23.830Z,325.00
2018-07-04T09:54:24.609Z,325.00
2018-07-04T09:55:25.381Z,325.00
2018-07-04T09:56:26.161Z,324.00
2018-07-04T09:57:26.954Z,324.00
2018-07-04T09:58:27.723Z,324.00
2018-07-04T09:59:28.495Z,324.00
2018-07-04T10:00:29.274Z,324.00
2018-07-04T10:01:30.047Z,324.00
2018-07-04T10:02:30.846Z,324.00
2018-07-04T10:03:31.707Z,324.00
2018-07-04T10:04:31.449Z,324.00
2018-07-04T10:05:33.218Z,324.00
2018-07-04T10:06:33.992Z,324.00
2018-07-04T10:07:34.794Z,324.00
2018-07-04T10:08:35.571Z,324.00
2018-07-04T10:09:36.337Z,322.00
2018-07-04T10:10:37.294Z,322.00
2018-07-04T10:11:36.978Z,322.00
2018-07-04T10:12:38.794Z,322.00
2018-07-04T10:13:38.782Z,322.00
2018-07-04T10:14:39.480Z,322.00
2018-07-04T10:15:41.259Z,321.00
2018-07-04T10:16:42.029Z,321.00
2018-07-04T10:17:43.091Z,321.00
2018-07-04T10:18:42.784Z,321.00
2018-07-04T10:19:44.559Z,321.00
2018-07-04T10:20:45.330Z,322.00
2018-07-04T10:21:46.100Z,321.00
2018-07-04T10:22:46.948Z,322.00
2018-07-04T10:23:47.700Z,322.00
2018-07-04T10:24:48.856Z,322.00
2018-07-04T10:26:23.416Z,322.00
2018-07-04T10:27:24.180Z,322.00
2018-07-04T10:28:24.968Z,322.00
2018-07-04T10:29:25.739Z,322.00
2018-07-04T10:30:26.517Z,324.00
2018-07-04T10:31:27.294Z,324.00
2018-07-04T10:32:28.063Z,322.00
2018-07-04T10:33:28.853Z,324.00
2018-07-04T10:34:29.627Z,322.00
2018-07-04T10:35:30.403Z,322.00
2018-07-04T10:36:31.175Z,322.00
2018-07-04T10:37:32.003Z,324.00
2018-07-04T10:38:31.741Z,324.00
2018-07-04T10:39:33.516Z,324.00
2018-07-04T10:40:34.292Z,324.00
2018-07-04T10:41:35.073Z,325.00
2018-07-04T10:42:35.835Z,324.00
2018-07-04T10:43:36.635Z,324.00
2018-07-04T10:44:37.400Z,324.00
2018-07-04T10:45:38.185Z,324.00
2018-07-04T10:46:38.965Z,325.00
2018-07-04T10:47:39.737Z,325.00
2018-07-04T10:48:40.529Z,325.00
2018-07-04T10:49:41.304Z,325.00
2018-07-04T10:50:42.066Z,326.00
2018-07-04T10:51:42.849Z,326.00
2018-07-04T10:52:43.613Z,326.00
2018-07-04T10:53:44.416Z,327.00
2018-07-04T10:54:45.198Z,327.00
2018-07-04T10:55:45.975Z,328.00
2018-07-04T10:56:46.741Z,328.00
2018-07-04T10:57:47.519Z,328.00
2018-07-04T10:58:48.379Z,329.00
2018-07-04T10:59:48.124Z,329.00
2018-07-04T11:00:49.890Z,329.00
2018-07-04T11:01:50.667Z,330.00
2018-07-04T11:02:51.437Z,330.00
2018-07-04T11:03:52.239Z,332.00
2018-07-04T11:04:54.016Z,331.00
2018-07-04T11:05:53.782Z,332.00
2018-07-04T11:06:54.554Z,333.00
2018-07-04T11:07:55.330Z,333.00
2018-07-04T11:08:56.133Z,334.00
2018-07-04T11:09:56.904Z,336.00
2018-07-04T11:10:57.677Z,336.00
2018-07-04T11:11:58.452Z,337.00
2018-07-04T11:12:59.220Z,337.00
2018-07-04T11:14:00.030Z,338.00
2018-07-04T11:15:00.798Z,337.00
2018-07-04T11:16:01.573Z,338.00
2018-07-04T11:17:02.395Z,339.00
2018-07-04T11:18:02.120Z,339.00
2018-07-04T11:19:03.921Z,340.00
2018-07-04T11:20:04.688Z,340.00
2018-07-04T11:21:05.464Z,342.00
2018-07-04T11:22:06.235Z,343.00
2018-07-04T11:23:07.011Z,344.00
2018-07-04T11:24:07.818Z,344.00
2018-07-04T11:25:08.589Z,345.00
2018-07-04T11:26:09.359Z,345.00
2018-07-04T11:27:10.133Z,346.00
2018-07-04T11:28:10.902Z,345.00
2018-07-04T11:29:12.054Z,345.00
2018-07-04T11:30:11.008Z,345.00
2018-07-04T11:31:11.691Z,344.00
2018-07-04T11:32:13.681Z,345.00
2018-07-04T11:33:13.614Z,344.00
2018-07-04T11:34:14.352Z,344.00
2018-07-04T11:35:16.112Z,343.00
2018-07-04T11:36:16.891Z,344.00
2018-07-04T11:37:17.659Z,344.00
2018-07-04T11:38:18.440Z,344.00
2018-07-04T11:39:19.231Z,344.00
2018-07-04T11:40:20.005Z,344.00
2018-07-04T11:41:20.776Z,343.00
2018-07-04T11:42:21.555Z,343.00
2018-07-04T11:43:22.322Z,342.00
2018-07-04T11:44:23.124Z,342.00
2018-07-04T11:45:23.895Z,342.00
2018-07-04T11:46:24.693Z,343.00
2018-07-04T11:47:25.442Z,343.00
2018-07-04T11:48:26.418Z,342.00
2018-07-04T11:49:26.329Z,343.00
2018-07-04T11:50:28.097Z,342.00
2018-07-04T11:51:28.882Z,343.00
2018-07-04T11:52:29.658Z,341.00
2018-07-04T11:53:30.429Z,343.00
2018-07-04T11:54:31.220Z,342.00
2018-07-04T11:55:32.005Z,343.00
2018-07-04T11:56:32.822Z,343.00
2018-07-04T11:57:32.554Z,343.00
2018-07-04T11:58:34.505Z,342.00
2018-07-04T11:59:34.539Z,343.00
2018-07-04T12:00:35.280Z,343.00
2018-07-04T12:01:36.071Z,343.00
2018-07-04T12:02:36.827Z,343.00
2018-07-04T12:03:37.788Z,344.00
2018-07-04T12:04:37.514Z,343.00
2018-07-04T12:05:39.288Z,344.00
2018-07-04T12:06:40.063Z,343.00
2018-07-04T12:07:40.893Z,342.00
2018-07-04T12:08:40.647Z,343.00
2018-07-04T12:09:42.456Z,339.00
2018-07-04T12:10:43.400Z,340.00
2018-07-04T12:11:43.093Z,340.00
2018-07-04T12:12:44.866Z,340.00
2018-07-04T12:13:45.811Z,340.00
2018-07-04T12:14:45.536Z,338.00
2018-07-04T12:15:47.308Z,337.00
2018-07-04T12:16:48.081Z,339.00
2018-07-04T12:17:48.857Z,339.00
2018-07-04T12:18:49.625Z,339.00
2018-07-04T12:19:50.426Z,338.00
2018-07-04T12:20:51.255Z,338.00
2018-07-04T12:21:51.181Z,338.00
2018-07-04T12:22:51.882Z,338.00
2018-07-04T12:23:53.656Z,339.00
2018-07-04T12:24:54.445Z,337.00
2018-07-04T12:25:54.399Z,336.00
2018-07-04T12:26:55.150Z,336.00
2018-07-04T12:27:55.868Z,334.00
2018-07-04T12:28:57.639Z,334.00
2018-07-04T12:29:58.814Z,334.00
2018-07-04T12:30:59.261Z,334.00
2018-07-04T12:43:19.082Z,334.00
2018-07-04T12:44:19.835Z,333.00
2018-07-04T12:45:20.611Z,332.00
2018-07-04T12:46:21.409Z,330.00
2018-07-04T12:47:22.222Z,332.00
2018-07-04T12:48:21.964Z,330.00
2018-07-04T12:49:23.732Z,330.00
2018-07-04T12:50:24.499Z,331.00
2018-07-04T12:51:25.292Z,330.00
2018-07-04T12:52:26.062Z,329.00
2018-07-04T12:53:26.836Z,329.00
2018-07-04T12:54:27.658Z,329.00
2018-07-04T12:55:27.388Z,330.00
2018-07-04T12:56:29.191Z,330.00
2018-07-04T12:57:29.958Z,330.00
2018-07-04T12:58:30.734Z,331.00
2018-07-04T12:59:31.553Z,332.00
2018-07-04T13:00:31.283Z,331.00
2018-07-04T13:01:33.075Z,332.00
2018-07-04T13:02:33.845Z,332.00
2018-07-04T13:03:34.616Z,333.00
2018-07-04T13:04:35.407Z,334.00
2018-07-04T13:05:36.178Z,334.00
2018-07-04T13:06:37.727Z,331.00
2018-07-04T13:07:36.408Z,331.00
2018-07-04T13:08:38.192Z,332.00
2018-07-04T13:09:37.966Z,331.00
2018-07-04T13:10:42.883Z,331.00
2018-07-04T13:11:39.676Z,330.00
2018-07-04T13:12:40.461Z,330.00
2018-07-04T13:13:42.221Z,329.00
2018-07-04T13:14:43.012Z,329.00
2018-07-04T13:15:43.767Z,329.00
2018-07-04T13:16:44.576Z,328.00
2018-07-04T13:17:45.352Z,328.00
2018-07-04T13:18:46.129Z,328.00
2018-07-04T13:19:46.919Z,324.00
2018-07-04T13:20:47.742Z,329.00
2018-07-04T13:21:50.270Z,324.00